sensor_id;sensor_type;location;lat;lon;timestamp;P1;durP1;ratioP1;P2;durP2;ratioP2
59008;SDS011;44794;42.652;23.318;2023-04-25T00:01:35;9.07;;;6.90;;
59008;SDS011;44794;42.652;23.318;2023-04-25T00:04:01;8.10;;;6.45;;
59008;SDS011;44794;42.652;23.318;2023-04-25T00:06:27;9.55;;;7.07;;
59008;SDS011;44794;42.652;23.318;2023-04-25T00:08:54;10.52;;;7.85;;
59008;SDS011;44794;42.652;23.318;2023-04-25T00:11:21;11.05;;;8.50;;
59008;SDS011;44794;42.652;23.318;2023-04-25T00:13:47;12.65;;;8.93;;
59008;SDS011;44794;42.652;23.318;2023-04-25T00:16:14;13.30;;;8.60;;
59008;SDS011;44794;42.652;23.318;2023-04-25T00:18:41;14.25;;;9.15;;
59008;SDS011;44794;42.652;23.318;2023-04-25T00:21:07;11.07;;;8.93;;
59008;SDS011;44794;42.652;23.318;2023-04-25T00:23:33;13.30;;;9.23;;
59008;SDS011;44794;42.652;23.318;2023-04-25T00:26:01;22.63;;;9.68;;
59008;SDS011;44794;42.652;23.318;2023-04-25T00:28:27;13.10;;;8.50;;
59008;SDS011;44794;42.652;23.318;2023-04-25T00:30:52;10.25;;;7.90;;
59008;SDS011;44794;42.652;23.318;2023-04-25T00:33:18;12.98;;;8.77;;
59008;SDS011;44794;42.652;23.318;2023-04-25T00:35:43;13.25;;;9.60;;
59008;SDS011;44794;42.652;23.318;2023-04-25T00:38:08;15.55;;;10.00;;
59008;SDS011;44794;42.652;23.318;2023-04-25T00:40:34;15.18;;;11.10;;
59008;SDS011;44794;42.652;23.318;2023-04-25T00:43:00;16.27;;;11.25;;
59008;SDS011;44794;42.652;23.318;2023-04-25T00:45:28;15.63;;;10.73;;
59008;SDS011;44794;42.652;23.318;2023-04-25T00:47:54;16.42;;;11.43;;
59008;SDS011;44794;42.652;23.318;2023-04-25T00:50:21;18.77;;;11.15;;
59008;SDS011;44794;42.652;23.318;2023-04-25T00:52:46;20.35;;;12.20;;
59008;SDS011;44794;42.652;23.318;2023-04-25T00:55:12;18.05;;;12.15;;
59008;SDS011;44794;42.652;23.318;2023-04-25T00:57:38;21.25;;;12.75;;
59008;SDS011;44794;42.652;23.318;2023-04-25T01:00:06;21.58;;;13.35;;
59008;SDS011;44794;42.652;23.318;2023-04-25T01:02:32;20.65;;;11.93;;
59008;SDS011;44794;42.652;23.318;2023-04-25T01:04:59;21.65;;;13.52;;
59008;SDS011;44794;42.652;23.318;2023-04-25T01:07:25;20.85;;;13.50;;
59008;SDS011;44794;42.652;23.318;2023-04-25T01:09:51;23.85;;;13.80;;
59008;SDS011;44794;42.652;23.318;2023-04-25T01:12:17;23.75;;;13.68;;
59008;SDS011;44794;42.652;23.318;2023-04-25T01:14:43;22.30;;;13.00;;
59008;SDS011;44794;42.652;23.318;2023-04-25T01:17:09;18.45;;;12.38;;
59008;SDS011;44794;42.652;23.318;2023-04-25T01:19:35;19.92;;;12.82;;
59008;SDS011;44794;42.652;23.318;2023-04-25T01:22:00;21.15;;;13.02;;
59008;SDS011;44794;42.652;23.318;2023-04-25T01:24:26;19.52;;;13.05;;
59008;SDS011;44794;42.652;23.318;2023-04-25T01:26:52;23.80;;;13.40;;
59008;SDS011;44794;42.652;23.318;2023-04-25T01:29:21;21.75;;;13.25;;
59008;SDS011;44794;42.652;23.318;2023-04-25T01:31:47;19.83;;;13.05;;
59008;SDS011;44794;42.652;23.318;2023-04-25T01:34:13;22.08;;;14.10;;
59008;SDS011;44794;42.652;23.318;2023-04-25T01:36:38;24.80;;;13.57;;
59008;SDS011;44794;42.652;23.318;2023-04-25T01:39:05;24.05;;;14.43;;
59008;SDS011;44794;42.652;23.318;2023-04-25T01:41:31;26.13;;;14.70;;
59008;SDS011;44794;42.652;23.318;2023-04-25T01:43:57;24.95;;;14.98;;
59008;SDS011;44794;42.652;23.318;2023-04-25T01:46:23;25.15;;;14.63;;
59008;SDS011;44794;42.652;23.318;2023-04-25T01:48:48;20.67;;;12.25;;
59008;SDS011;44794;42.652;23.318;2023-04-25T01:51:14;20.80;;;12.80;;
59008;SDS011;44794;42.652;23.318;2023-04-25T01:53:40;21.60;;;12.77;;
59008;SDS011;44794;42.652;23.318;2023-04-25T01:56:06;23.77;;;12.48;;
59008;SDS011;44794;42.652;23.318;2023-04-25T01:58:32;24.73;;;13.48;;
59008;SDS011;44794;42.652;23.318;2023-04-25T02:00:57;27.73;;;14.43;;
59008;SDS011;44794;42.652;23.318;2023-04-25T02:03:22;25.20;;;14.82;;
59008;SDS011;44794;42.652;23.318;2023-04-25T02:05:48;26.90;;;14.02;;
59008;SDS011;44794;42.652;23.318;2023-04-25T02:08:13;23.77;;;13.02;;
59008;SDS011;44794;42.652;23.318;2023-04-25T02:10:39;24.30;;;13.98;;
59008;SDS011;44794;42.652;23.318;2023-04-25T02:13:04;25.95;;;14.57;;
59008;SDS011;44794;42.652;23.318;2023-04-25T02:15:30;28.05;;;15.65;;
59008;SDS011;44794;42.652;23.318;2023-04-25T02:17:56;27.63;;;14.20;;
59008;SDS011;44794;42.652;23.318;2023-04-25T02:20:22;24.70;;;14.15;;
59008;SDS011;44794;42.652;23.318;2023-04-25T02:22:48;27.92;;;14.75;;
59008;SDS011;44794;42.652;23.318;2023-04-25T02:25:14;24.67;;;14.07;;
59008;SDS011;44794;42.652;23.318;2023-04-25T02:27:40;22.73;;;13.70;;
59008;SDS011;44794;42.652;23.318;2023-04-25T02:30:06;22.38;;;13.23;;
59008;SDS011;44794;42.652;23.318;2023-04-25T02:32:32;25.58;;;14.48;;
59008;SDS011;44794;42.652;23.318;2023-04-25T02:34:59;23.67;;;13.75;;
59008;SDS011;44794;42.652;23.318;2023-04-25T02:37:32;30.10;;;15.55;;
59008;SDS011;44794;42.652;23.318;2023-04-25T02:39:59;27.60;;;14.38;;
59008;SDS011;44794;42.652;23.318;2023-04-25T02:42:25;32.95;;;15.65;;
59008;SDS011;44794;42.652;23.318;2023-04-25T02:44:51;33.78;;;17.23;;
59008;SDS011;44794;42.652;23.318;2023-04-25T02:47:17;31.45;;;16.45;;
59008;SDS011;44794;42.652;23.318;2023-04-25T02:49:42;32.08;;;17.23;;
59008;SDS011;44794;42.652;23.318;2023-04-25T02:52:08;36.92;;;17.02;;
59008;SDS011;44794;42.652;23.318;2023-04-25T02:54:34;32.00;;;16.75;;
59008;SDS011;44794;42.652;23.318;2023-04-25T02:56:59;31.33;;;16.33;;
59008;SDS011;44794;42.652;23.318;2023-04-25T02:59:26;38.58;;;19.10;;
59008;SDS011;44794;42.652;23.318;2023-04-25T03:01:51;37.63;;;19.00;;
59008;SDS011;44794;42.652;23.318;2023-04-25T03:04:16;38.90;;;20.00;;
59008;SDS011;44794;42.652;23.318;2023-04-25T03:06:44;38.22;;;20.63;;
59008;SDS011;44794;42.652;23.318;2023-04-25T03:09:09;38.35;;;20.17;;
59008;SDS011;44794;42.652;23.318;2023-04-25T03:11:36;38.58;;;20.33;;
59008;SDS011;44794;42.652;23.318;2023-04-25T03:14:03;41.75;;;20.48;;
59008;SDS011;44794;42.652;23.318;2023-04-25T03:16:28;42.58;;;21.58;;
59008;SDS011;44794;42.652;23.318;2023-04-25T03:18:54;39.72;;;21.30;;
59008;SDS011;44794;42.652;23.318;2023-04-25T03:21:19;44.38;;;20.08;;
59008;SDS011;44794;42.652;23.318;2023-04-25T03:23:45;43.03;;;20.17;;
59008;SDS011;44794;42.652;23.318;2023-04-25T03:26:10;49.05;;;20.95;;
59008;SDS011;44794;42.652;23.318;2023-04-25T03:28:36;39.35;;;18.75;;
59008;SDS011;44794;42.652;23.318;2023-04-25T03:31:01;41.85;;;19.90;;
59008;SDS011;44794;42.652;23.318;2023-04-25T03:33:27;38.92;;;18.95;;
59008;SDS011;44794;42.652;23.318;2023-04-25T03:35:52;36.55;;;18.27;;
59008;SDS011;44794;42.652;23.318;2023-04-25T03:38:18;38.53;;;18.98;;
59008;SDS011;44794;42.652;23.318;2023-04-25T03:40:43;40.22;;;19.65;;
59008;SDS011;44794;42.652;23.318;2023-04-25T03:43:09;43.13;;;20.92;;
59008;SDS011;44794;42.652;23.318;2023-04-25T03:45:35;40.20;;;20.08;;
59008;SDS011;44794;42.652;23.318;2023-04-25T03:48:00;42.95;;;22.88;;
59008;SDS011;44794;42.652;23.318;2023-04-25T03:50:25;37.45;;;18.85;;
59008;SDS011;44794;42.652;23.318;2023-04-25T03:52:51;35.30;;;18.55;;
59008;SDS011;44794;42.652;23.318;2023-04-25T03:55:16;35.30;;;18.85;;
59008;SDS011;44794;42.652;23.318;2023-04-25T03:57:42;36.13;;;19.58;;
59008;SDS011;44794;42.652;23.318;2023-04-25T04:00:07;38.08;;;19.60;;
59008;SDS011;44794;42.652;23.318;2023-04-25T04:02:33;36.30;;;21.00;;
59008;SDS011;44794;42.652;23.318;2023-04-25T04:04:59;37.13;;;21.90;;
59008;SDS011;44794;42.652;23.318;2023-04-25T04:07:25;30.73;;;17.67;;
59008;SDS011;44794;42.652;23.318;2023-04-25T04:09:51;35.20;;;19.52;;
59008;SDS011;44794;42.652;23.318;2023-04-25T04:12:16;31.42;;;18.17;;
59008;SDS011;44794;42.652;23.318;2023-04-25T04:14:41;28.05;;;16.55;;
59008;SDS011;44794;42.652;23.318;2023-04-25T04:17:07;26.50;;;16.33;;
59008;SDS011;44794;42.652;23.318;2023-04-25T04:19:32;25.20;;;16.27;;
59008;SDS011;44794;42.652;23.318;2023-04-25T04:21:58;22.15;;;13.88;;
59008;SDS011;44794;42.652;23.318;2023-04-25T04:24:23;21.35;;;13.80;;
59008;SDS011;44794;42.652;23.318;2023-04-25T04:26:49;20.23;;;13.50;;
59008;SDS011;44794;42.652;23.318;2023-04-25T04:29:15;21.52;;;13.48;;
59008;SDS011;44794;42.652;23.318;2023-04-25T04:31:47;20.20;;;13.15;;
59008;SDS011;44794;42.652;23.318;2023-04-25T04:34:14;19.83;;;13.65;;
59008;SDS011;44794;42.652;23.318;2023-04-25T04:36:41;20.10;;;13.23;;
59008;SDS011;44794;42.652;23.318;2023-04-25T04:39:07;21.75;;;13.90;;
59008;SDS011;44794;42.652;23.318;2023-04-25T04:41:34;21.92;;;13.82;;
59008;SDS011;44794;42.652;23.318;2023-04-25T04:43:59;21.83;;;14.63;;
59008;SDS011;44794;42.652;23.318;2023-04-25T04:46:26;22.15;;;14.98;;
59008;SDS011;44794;42.652;23.318;2023-04-25T04:48:53;22.52;;;14.43;;
59008;SDS011;44794;42.652;23.318;2023-04-25T04:51:18;19.13;;;13.98;;
59008;SDS011;44794;42.652;23.318;2023-04-25T04:53:45;21.48;;;12.73;;
59008;SDS011;44794;42.652;23.318;2023-04-25T04:56:11;15.95;;;11.38;;
59008;SDS011;44794;42.652;23.318;2023-04-25T04:58:36;15.55;;;11.77;;
59008;SDS011;44794;42.652;23.318;2023-04-25T05:01:02;14.00;;;10.20;;
59008;SDS011;44794;42.652;23.318;2023-04-25T05:03:28;14.50;;;9.18;;
59008;SDS011;44794;42.652;23.318;2023-04-25T05:05:53;16.02;;;10.27;;
59008;SDS011;44794;42.652;23.318;2023-04-25T05:08:18;14.55;;;10.52;;
59008;SDS011;44794;42.652;23.318;2023-04-25T05:10:44;15.10;;;11.15;;
59008;SDS011;44794;42.652;23.318;2023-04-25T05:13:10;14.07;;;10.57;;
59008;SDS011;44794;42.652;23.318;2023-04-25T05:15:35;17.23;;;11.48;;
59008;SDS011;44794;42.652;23.318;2023-04-25T05:18:00;15.65;;;12.18;;
59008;SDS011;44794;42.652;23.318;2023-04-25T05:20:26;17.50;;;13.18;;
59008;SDS011;44794;42.652;23.318;2023-04-25T05:22:52;17.65;;;13.20;;
59008;SDS011;44794;42.652;23.318;2023-04-25T05:25:17;21.48;;;15.65;;
59008;SDS011;44794;42.652;23.318;2023-04-25T05:27:43;18.63;;;13.88;;
59008;SDS011;44794;42.652;23.318;2023-04-25T05:30:08;23.73;;;15.35;;
59008;SDS011;44794;42.652;23.318;2023-04-25T05:32:34;20.85;;;14.85;;
59008;SDS011;44794;42.652;23.318;2023-04-25T05:35:00;21.70;;;14.52;;
59008;SDS011;44794;42.652;23.318;2023-04-25T05:37:26;25.15;;;15.98;;
59008;SDS011;44794;42.652;23.318;2023-04-25T05:39:51;22.92;;;15.65;;
59008;SDS011;44794;42.652;23.318;2023-04-25T05:42:17;25.23;;;16.42;;
59008;SDS011;44794;42.652;23.318;2023-04-25T05:44:42;22.48;;;16.63;;
59008;SDS011;44794;42.652;23.318;2023-04-25T05:47:08;21.90;;;15.32;;
59008;SDS011;44794;42.652;23.318;2023-04-25T05:49:34;21.63;;;15.07;;
59008;SDS011;44794;42.652;23.318;2023-04-25T05:51:59;21.77;;;15.43;;
59008;SDS011;44794;42.652;23.318;2023-04-25T05:54:25;21.02;;;14.00;;
59008;SDS011;44794;42.652;23.318;2023-04-25T05:56:50;18.58;;;13.73;;
59008;SDS011;44794;42.652;23.318;2023-04-25T05:59:16;37.63;;;21.55;;
59008;SDS011;44794;42.652;23.318;2023-04-25T06:01:41;18.95;;;14.52;;
59008;SDS011;44794;42.652;23.318;2023-04-25T06:04:07;20.60;;;15.13;;
59008;SDS011;44794;42.652;23.318;2023-04-25T06:06:32;20.63;;;13.88;;
59008;SDS011;44794;42.652;23.318;2023-04-25T06:08:58;18.48;;;12.65;;
59008;SDS011;44794;42.652;23.318;2023-04-25T06:11:23;16.27;;;10.98;;
59008;SDS011;44794;42.652;23.318;2023-04-25T06:13:49;13.75;;;11.50;;
59008;SDS011;44794;42.652;23.318;2023-04-25T06:16:14;16.02;;;11.35;;
59008;SDS011;44794;42.652;23.318;2023-04-25T06:18:40;13.23;;;9.93;;
59008;SDS011;44794;42.652;23.318;2023-04-25T06:21:05;13.48;;;10.32;;
59008;SDS011;44794;42.652;23.318;2023-04-25T06:23:31;12.90;;;8.80;;
59008;SDS011;44794;42.652;23.318;2023-04-25T06:25:57;9.90;;;7.63;;
59008;SDS011;44794;42.652;23.318;2023-04-25T06:28:22;10.65;;;8.40;;
59008;SDS011;44794;42.652;23.318;2023-04-25T06:30:49;12.13;;;9.05;;
59008;SDS011;44794;42.652;23.318;2023-04-25T06:33:15;13.60;;;10.02;;
59008;SDS011;44794;42.652;23.318;2023-04-25T06:35:40;12.80;;;9.40;;
59008;SDS011;44794;42.652;23.318;2023-04-25T06:38:06;12.15;;;8.88;;
59008;SDS011;44794;42.652;23.318;2023-04-25T06:40:31;9.73;;;7.50;;
59008;SDS011;44794;42.652;23.318;2023-04-25T06:42:57;11.98;;;8.20;;
59008;SDS011;44794;42.652;23.318;2023-04-25T06:45:23;9.88;;;8.05;;
59008;SDS011;44794;42.652;23.318;2023-04-25T06:47:48;10.95;;;8.25;;
59008;SDS011;44794;42.652;23.318;2023-04-25T06:50:13;10.15;;;8.00;;
59008;SDS011;44794;42.652;23.318;2023-04-25T06:52:39;13.60;;;8.75;;
59008;SDS011;44794;42.652;23.318;2023-04-25T06:55:04;9.82;;;8.32;;
59008;SDS011;44794;42.652;23.318;2023-04-25T06:57:30;11.80;;;8.30;;
59008;SDS011;44794;42.652;23.318;2023-04-25T06:59:56;11.20;;;8.25;;
59008;SDS011;44794;42.652;23.318;2023-04-25T07:02:21;11.90;;;8.75;;
59008;SDS011;44794;42.652;23.318;2023-04-25T07:04:47;14.70;;;8.68;;
59008;SDS011;44794;42.652;23.318;2023-04-25T07:07:13;10.30;;;8.02;;
59008;SDS011;44794;42.652;23.318;2023-04-25T07:09:38;12.15;;;9.63;;
59008;SDS011;44794;42.652;23.318;2023-04-25T07:12:04;12.27;;;8.70;;
59008;SDS011;44794;42.652;23.318;2023-04-25T07:14:29;13.60;;;8.55;;
59008;SDS011;44794;42.652;23.318;2023-04-25T07:16:55;12.95;;;9.00;;
59008;SDS011;44794;42.652;23.318;2023-04-25T07:19:23;11.52;;;8.77;;
59008;SDS011;44794;42.652;23.318;2023-04-25T07:21:52;11.98;;;7.80;;
59008;SDS011;44794;42.652;23.318;2023-04-25T07:24:17;17.98;;;9.25;;
59008;SDS011;44794;42.652;23.318;2023-04-25T07:26:43;13.05;;;8.90;;
59008;SDS011;44794;42.652;23.318;2023-04-25T07:29:10;12.90;;;8.27;;
59008;SDS011;44794;42.652;23.318;2023-04-25T07:31:35;12.50;;;8.40;;
59008;SDS011;44794;42.652;23.318;2023-04-25T07:34:00;16.35;;;8.70;;
59008;SDS011;44794;42.652;23.318;2023-04-25T07:36:26;9.77;;;7.32;;
59008;SDS011;44794;42.652;23.318;2023-04-25T07:38:52;16.20;;;7.28;;
59008;SDS011;44794;42.652;23.318;2023-04-25T07:41:17;7.55;;;6.10;;
59008;SDS011;44794;42.652;23.318;2023-04-25T07:43:42;12.65;;;6.35;;
59008;SDS011;44794;42.652;23.318;2023-04-25T07:46:08;7.93;;;6.07;;
59008;SDS011;44794;42.652;23.318;2023-04-25T07:48:33;9.48;;;6.20;;
59008;SDS011;44794;42.652;23.318;2023-04-25T07:50:59;10.23;;;5.70;;
59008;SDS011;44794;42.652;23.318;2023-04-25T07:53:24;8.40;;;6.38;;
59008;SDS011;44794;42.652;23.318;2023-04-25T07:55:50;11.95;;;6.65;;
59008;SDS011;44794;42.652;23.318;2023-04-25T07:58:15;7.57;;;6.30;;
59008;SDS011;44794;42.652;23.318;2023-04-25T08:00:46;10.40;;;5.95;;
59008;SDS011;44794;42.652;23.318;2023-04-25T08:03:11;6.93;;;5.32;;
59008;SDS011;44794;42.652;23.318;2023-04-25T08:05:37;8.57;;;6.25;;
59008;SDS011;44794;42.652;23.318;2023-04-25T08:08:02;9.43;;;6.20;;
59008;SDS011;44794;42.652;23.318;2023-04-25T08:10:29;9.75;;;6.13;;
59008;SDS011;44794;42.652;23.318;2023-04-25T08:12:54;9.85;;;5.30;;
59008;SDS011;44794;42.652;23.318;2023-04-25T08:15:20;7.97;;;5.43;;
59008;SDS011;44794;42.652;23.318;2023-04-25T08:17:45;8.65;;;5.90;;
59008;SDS011;44794;42.652;23.318;2023-04-25T08:20:11;6.63;;;5.30;;
59008;SDS011;44794;42.652;23.318;2023-04-25T08:22:37;11.07;;;6.07;;
59008;SDS011;44794;42.652;23.318;2023-04-25T08:25:02;9.05;;;5.57;;
59008;SDS011;44794;42.652;23.318;2023-04-25T08:27:28;7.40;;;5.18;;
59008;SDS011;44794;42.652;23.318;2023-04-25T08:29:53;14.13;;;5.80;;
59008;SDS011;44794;42.652;23.318;2023-04-25T08:32:19;7.80;;;5.20;;
59008;SDS011;44794;42.652;23.318;2023-04-25T08:34:46;6.55;;;5.25;;
59008;SDS011;44794;42.652;23.318;2023-04-25T08:37:11;13.95;;;5.40;;
59008;SDS011;44794;42.652;23.318;2023-04-25T08:39:37;15.60;;;6.13;;
59008;SDS011;44794;42.652;23.318;2023-04-25T08:42:04;7.55;;;4.35;;
59008;SDS011;44794;42.652;23.318;2023-04-25T08:44:35;7.95;;;5.38;;
59008;SDS011;44794;42.652;23.318;2023-04-25T08:47:03;13.63;;;5.70;;
59008;SDS011;44794;42.652;23.318;2023-04-25T08:49:31;5.78;;;3.72;;
59008;SDS011;44794;42.652;23.318;2023-04-25T08:51:59;6.43;;;4.80;;
59008;SDS011;44794;42.652;23.318;2023-04-25T08:54:27;6.78;;;4.30;;
59008;SDS011;44794;42.652;23.318;2023-04-25T08:56:54;13.43;;;5.80;;
59008;SDS011;44794;42.652;23.318;2023-04-25T08:59:22;7.60;;;5.25;;
59008;SDS011;44794;42.652;23.318;2023-04-25T09:01:48;11.00;;;7.50;;
59008;SDS011;44794;42.652;23.318;2023-04-25T09:04:15;12.57;;;7.30;;
59008;SDS011;44794;42.652;23.318;2023-04-25T09:06:41;11.68;;;7.10;;
59008;SDS011;44794;42.652;23.318;2023-04-25T09:09:07;11.55;;;7.30;;
59008;SDS011;44794;42.652;23.318;2023-04-25T09:11:34;10.02;;;6.53;;
59008;SDS011;44794;42.652;23.318;2023-04-25T09:19:29;10.52;;;7.22;;
59008;SDS011;44794;42.652;23.318;2023-04-25T09:22:01;10.60;;;6.82;;
59008;SDS011;44794;42.652;23.318;2023-04-25T09:27:06;15.80;;;7.82;;
59008;SDS011;44794;42.652;23.318;2023-04-25T09:29:33;10.60;;;7.30;;
59008;SDS011;44794;42.652;23.318;2023-04-25T09:32:11;11.55;;;7.63;;
59008;SDS011;44794;42.652;23.318;2023-04-25T09:34:41;10.88;;;7.18;;
59008;SDS011;44794;42.652;23.318;2023-04-25T09:37:11;10.23;;;6.85;;
59008;SDS011;44794;42.652;23.318;2023-04-25T09:39:37;12.35;;;7.07;;
59008;SDS011;44794;42.652;23.318;2023-04-25T09:42:04;8.38;;;5.88;;
59008;SDS011;44794;42.652;23.318;2023-04-25T09:44:29;11.23;;;6.63;;
59008;SDS011;44794;42.652;23.318;2023-04-25T09:46:55;9.18;;;6.60;;
59008;SDS011;44794;42.652;23.318;2023-04-25T09:49:22;10.80;;;6.60;;
59008;SDS011;44794;42.652;23.318;2023-04-25T09:51:57;8.10;;;6.57;;
59008;SDS011;44794;42.652;23.318;2023-04-25T09:54:23;9.10;;;5.28;;
59008;SDS011;44794;42.652;23.318;2023-04-25T09:56:51;8.60;;;5.50;;
59008;SDS011;44794;42.652;23.318;2023-04-25T09:59:21;9.15;;;5.32;;
59008;SDS011;44794;42.652;23.318;2023-04-25T10:01:50;8.23;;;4.97;;
59008;SDS011;44794;42.652;23.318;2023-04-25T10:04:19;6.18;;;4.85;;
59008;SDS011;44794;42.652;23.318;2023-04-25T10:06:48;7.45;;;4.30;;
59008;SDS011;44794;42.652;23.318;2023-04-25T10:09:15;15.25;;;5.50;;
59008;SDS011;44794;42.652;23.318;2023-04-25T10:11:43;8.40;;;5.20;;
59008;SDS011;44794;42.652;23.318;2023-04-25T10:14:12;9.05;;;5.18;;
59008;SDS011;44794;42.652;23.318;2023-04-25T10:16:38;2.40;;;1.55;;
59008;SDS011;44794;42.652;23.318;2023-04-25T10:19:03;2.42;;;1.02;;
59008;SDS011;44794;42.652;23.318;2023-04-25T10:21:29;2.72;;;1.00;;
59008;SDS011;44794;42.652;23.318;2023-04-25T10:23:58;3.35;;;1.10;;
59008;SDS011;44794;42.652;23.318;2023-04-25T10:26:24;2.22;;;1.00;;
59008;SDS011;44794;42.652;23.318;2023-04-25T10:29:00;5.88;;;2.00;;
59008;SDS011;44794;42.652;23.318;2023-04-25T10:31:27;3.72;;;1.55;;
59008;SDS011;44794;42.652;23.318;2023-04-25T10:33:54;2.65;;;1.20;;
59008;SDS011;44794;42.652;23.318;2023-04-25T10:36:23;5.63;;;1.80;;
59008;SDS011;44794;42.652;23.318;2023-04-25T10:38:52;4.32;;;1.30;;
59008;SDS011;44794;42.652;23.318;2023-04-25T10:41:19;1.50;;;1.27;;
59008;SDS011;44794;42.652;23.318;2023-04-25T10:43:45;2.35;;;1.20;;
59008;SDS011;44794;42.652;23.318;2023-04-25T10:46:22;2.40;;;1.13;;
59008;SDS011;44794;42.652;23.318;2023-04-25T10:48:51;3.80;;;1.65;;
59008;SDS011;44794;42.652;23.318;2023-04-25T10:51:18;3.78;;;1.63;;
59008;SDS011;44794;42.652;23.318;2023-04-25T10:56:20;4.47;;;1.80;;
59008;SDS011;44794;42.652;23.318;2023-04-25T10:58:47;5.18;;;1.70;;
59008;SDS011;44794;42.652;23.318;2023-04-25T11:01:13;3.38;;;1.80;;
59008;SDS011;44794;42.652;23.318;2023-04-25T11:03:41;3.65;;;1.77;;
59008;SDS011;44794;42.652;23.318;2023-04-25T11:06:15;6.20;;;1.90;;
59008;SDS011;44794;42.652;23.318;2023-04-25T11:08:49;4.57;;;1.73;;
59008;SDS011;44794;42.652;23.318;2023-04-25T11:11:18;2.97;;;1.27;;
59008;SDS011;44794;42.652;23.318;2023-04-25T11:13:47;2.88;;;1.25;;
59008;SDS011;44794;42.652;23.318;2023-04-25T11:16:14;3.92;;;1.42;;
59008;SDS011;44794;42.652;23.318;2023-04-25T11:18:43;1.92;;;1.05;;
59008;SDS011;44794;42.652;23.318;2023-04-25T11:21:09;6.93;;;1.80;;
59008;SDS011;44794;42.652;23.318;2023-04-25T11:23:36;2.28;;;1.13;;
59008;SDS011;44794;42.652;23.318;2023-04-25T11:26:02;2.67;;;0.90;;
59008;SDS011;44794;42.652;23.318;2023-04-25T11:28:28;6.50;;;1.42;;
59008;SDS011;44794;42.652;23.318;2023-04-25T11:30:54;8.68;;;1.63;;
59008;SDS011;44794;42.652;23.318;2023-04-25T11:33:24;5.10;;;1.20;;
59008;SDS011;44794;42.652;23.318;2023-04-25T11:35:51;1.07;;;0.97;;
59008;SDS011;44794;42.652;23.318;2023-04-25T11:38:19;2.70;;;1.20;;
59008;SDS011;44794;42.652;23.318;2023-04-25T11:40:49;1.80;;;1.27;;
59008;SDS011;44794;42.652;23.318;2023-04-25T11:43:15;5.47;;;2.00;;
59008;SDS011;44794;42.652;23.318;2023-04-25T11:45:41;1.90;;;0.80;;
59008;SDS011;44794;42.652;23.318;2023-04-25T11:48:06;4.18;;;1.10;;
59008;SDS011;44794;42.652;23.318;2023-04-25T11:50:32;1.75;;;1.20;;
59008;SDS011;44794;42.652;23.318;2023-04-25T11:52:57;3.78;;;1.30;;
59008;SDS011;44794;42.652;23.318;2023-04-25T11:55:23;9.40;;;1.88;;
59008;SDS011;44794;42.652;23.318;2023-04-25T11:57:48;10.68;;;2.08;;
59008;SDS011;44794;42.652;23.318;2023-04-25T12:00:20;5.05;;;2.05;;
59008;SDS011;44794;42.652;23.318;2023-04-25T12:02:47;3.30;;;1.60;;
59008;SDS011;44794;42.652;23.318;2023-04-25T12:05:16;3.45;;;1.65;;
59008;SDS011;44794;42.652;23.318;2023-04-25T12:07:42;5.43;;;1.60;;
59008;SDS011;44794;42.652;23.318;2023-04-25T12:10:11;1.98;;;1.40;;
59008;SDS011;44794;42.652;23.318;2023-04-25T12:12:41;4.65;;;1.60;;
59008;SDS011;44794;42.652;23.318;2023-04-25T12:15:09;5.53;;;1.55;;
59008;SDS011;44794;42.652;23.318;2023-04-25T12:17:35;1.85;;;1.40;;
59008;SDS011;44794;42.652;23.318;2023-04-25T12:20:06;4.90;;;2.10;;
59008;SDS011;44794;42.652;23.318;2023-04-25T12:22:33;5.78;;;2.00;;
59008;SDS011;44794;42.652;23.318;2023-04-25T12:24:59;1.92;;;1.48;;
59008;SDS011;44794;42.652;23.318;2023-04-25T12:27:25;2.70;;;1.45;;
59008;SDS011;44794;42.652;23.318;2023-04-25T12:29:53;2.20;;;1.40;;
59008;SDS011;44794;42.652;23.318;2023-04-25T12:32:19;2.72;;;1.17;;
59008;SDS011;44794;42.652;23.318;2023-04-25T12:34:45;1.85;;;1.08;;
59008;SDS011;44794;42.652;23.318;2023-04-25T12:37:11;3.45;;;1.55;;
59008;SDS011;44794;42.652;23.318;2023-04-25T12:39:37;4.20;;;1.80;;
59008;SDS011;44794;42.652;23.318;2023-04-25T12:42:02;5.50;;;1.75;;
59008;SDS011;44794;42.652;23.318;2023-04-25T12:44:28;3.13;;;1.30;;
59008;SDS011;44794;42.652;23.318;2023-04-25T12:46:54;1.48;;;1.00;;
59008;SDS011;44794;42.652;23.318;2023-04-25T12:49:19;3.67;;;1.20;;
59008;SDS011;44794;42.652;23.318;2023-04-25T12:51:45;3.78;;;1.30;;
59008;SDS011;44794;42.652;23.318;2023-04-25T12:54:11;1.90;;;1.15;;
59008;SDS011;44794;42.652;23.318;2023-04-25T12:56:37;2.70;;;1.15;;
59008;SDS011;44794;42.652;23.318;2023-04-25T12:59:02;3.75;;;1.45;;
59008;SDS011;44794;42.652;23.318;2023-04-25T13:01:28;2.47;;;1.33;;
59008;SDS011;44794;42.652;23.318;2023-04-25T13:03:54;2.53;;;1.00;;
59008;SDS011;44794;42.652;23.318;2023-04-25T13:06:21;3.50;;;1.48;;
59008;SDS011;44794;42.652;23.318;2023-04-25T13:08:47;3.58;;;1.98;;
59008;SDS011;44794;42.652;23.318;2023-04-25T13:11:13;4.05;;;2.40;;
59008;SDS011;44794;42.652;23.318;2023-04-25T13:13:39;3.50;;;2.10;;
59008;SDS011;44794;42.652;23.318;2023-04-25T13:16:06;5.53;;;2.08;;
59008;SDS011;44794;42.652;23.318;2023-04-25T13:18:32;3.78;;;2.05;;
59008;SDS011;44794;42.652;23.318;2023-04-25T13:20:58;4.65;;;2.40;;
59008;SDS011;44794;42.652;23.318;2023-04-25T13:23:25;4.70;;;2.20;;
59008;SDS011;44794;42.652;23.318;2023-04-25T13:25:51;5.78;;;2.88;;
59008;SDS011;44794;42.652;23.318;2023-04-25T13:28:17;6.75;;;2.70;;
59008;SDS011;44794;42.652;23.318;2023-04-25T13:30:43;7.80;;;3.45;;
59008;SDS011;44794;42.652;23.318;2023-04-25T13:33:09;9.25;;;3.35;;
59008;SDS011;44794;42.652;23.318;2023-04-25T13:35:35;7.88;;;3.85;;
59008;SDS011;44794;42.652;23.318;2023-04-25T13:38:01;5.00;;;3.65;;
59008;SDS011;44794;42.652;23.318;2023-04-25T13:40:27;7.22;;;3.30;;
59008;SDS011;44794;42.652;23.318;2023-04-25T13:42:53;5.57;;;3.40;;
59008;SDS011;44794;42.652;23.318;2023-04-25T13:45:19;4.82;;;3.08;;
59008;SDS011;44794;42.652;23.318;2023-04-25T13:47:44;4.55;;;2.80;;
59008;SDS011;44794;42.652;23.318;2023-04-25T13:50:10;4.00;;;2.35;;
59008;SDS011;44794;42.652;23.318;2023-04-25T13:52:38;3.08;;;2.70;;
59008;SDS011;44794;42.652;23.318;2023-04-25T13:55:04;3.85;;;2.20;;
59008;SDS011;44794;42.652;23.318;2023-04-25T13:57:31;5.50;;;3.03;;
59008;SDS011;44794;42.652;23.318;2023-04-25T13:59:57;5.47;;;3.55;;
59008;SDS011;44794;42.652;23.318;2023-04-25T14:02:22;12.10;;;2.90;;
59008;SDS011;44794;42.652;23.318;2023-04-25T14:04:48;4.28;;;3.10;;
59008;SDS011;44794;42.652;23.318;2023-04-25T14:07:14;4.25;;;2.83;;
59008;SDS011;44794;42.652;23.318;2023-04-25T14:09:42;2.65;;;2.15;;
59008;SDS011;44794;42.652;23.318;2023-04-25T14:12:08;1.63;;;1.35;;
59008;SDS011;44794;42.652;23.318;2023-04-25T14:14:34;1.95;;;1.40;;
59008;SDS011;44794;42.652;23.318;2023-04-25T14:16:59;1.70;;;1.27;;
59008;SDS011;44794;42.652;23.318;2023-04-25T14:19:25;2.05;;;1.23;;
59008;SDS011;44794;42.652;23.318;2023-04-25T14:21:50;1.40;;;1.20;;
59008;SDS011;44794;42.652;23.318;2023-04-25T14:24:15;3.42;;;1.40;;
59008;SDS011;44794;42.652;23.318;2023-04-25T14:26:41;2.47;;;1.10;;